CheckWX is a tool to help pilots better visualize weather data.  It is not intended as a substitute for an official pre-flight weather briefing.

08:14:58 UTC

KMTV METAR
Blue Ridge Airport
Martinsville, Virginia, USA
Current

25 mins ago

KMTV 220750Z AUTO 00000KT 7SM -RA OVC075 08/07 A3025 RMK AO2 P0003 T00750072
Observed
Feb-22 @ 07:50 UTC
Visibility
7 SM
Flight Rules
VFR
Conditions
Light Rain
Cloud Levels
  • Overcast at 7,500' AGL
Temperature
C / 46°F
Dewpoint
C / 45°F
Humidity
93%
Altimeter
30.25" Hg
Pressure
1024.42 hPa
Current Rain
0.03"
Previous

45 mins ago

KMTV 220730Z AUTO 00000KT 10SM -RA BKN080 OVC100 08/07 A3026 RMK AO2 P0001 T00750071
Observed
Feb-22 @ 07:30 UTC
Visibility
10 SM
Flight Rules
VFR
Conditions
Light Rain
Cloud Levels
  • Broken at 8,000' AGL
  • Overcast at 10,000' AGL
Temperature
C / 46°F
Dewpoint
C / 45°F
Humidity
93%
Altimeter
30.26" Hg
Pressure
1024.72 hPa
Current Rain
0.01"
Previous

1 hour ago

KMTV 220710Z AUTO 00000KT 7SM -RA SCT090 OVC110 08/07 A3026 RMK AO2 T00750070
Observed
Feb-22 @ 07:10 UTC
Visibility
7 SM
Flight Rules
VFR
Conditions
Light Rain
Cloud Levels
  • Scattered at 9,000' AGL
  • Overcast at 11,000' AGL
Temperature
C / 46°F
Dewpoint
C / 45°F
Humidity
93%
Altimeter
30.26" Hg
Pressure
1024.72 hPa